sensor_id;sensor_type;location;lat;lon;timestamp;temperature;humidity
17948;DHT22;9099;47.958;11.366;2023-02-15T00:01:05;1.00;99.90
17948;DHT22;9099;47.958;11.366;2023-02-15T00:03:32;1.00;99.90
17948;DHT22;9099;47.958;11.366;2023-02-15T00:05:58;1.00;99.90
17948;DHT22;9099;47.958;11.366;2023-02-15T00:08:25;0.90;99.90
17948;DHT22;9099;47.958;11.366;2023-02-15T00:10:52;0.90;99.90
17948;DHT22;9099;47.958;11.366;2023-02-15T00:13:20;0.90;99.90
17948;DHT22;9099;47.958;11.366;2023-02-15T00:15:47;0.90;99.90
17948;DHT22;9099;47.958;11.366;2023-02-15T00:18:14;0.90;99.90
17948;DHT22;9099;47.958;11.366;2023-02-15T00:20:41;0.80;99.90
17948;DHT22;9099;47.958;11.366;2023-02-15T00:23:08;0.80;99.90
17948;DHT22;9099;47.958;11.366;2023-02-15T00:25:35;0.80;99.90
17948;DHT22;9099;47.958;11.366;2023-02-15T00:28:01;0.80;99.90
17948;DHT22;9099;47.958;11.366;2023-02-15T00:30:30;0.80;99.90
17948;DHT22;9099;47.958;11.366;2023-02-15T00:32:57;0.70;99.90
17948;DHT22;9099;47.958;11.366;2023-02-15T00:35:24;0.70;99.90
17948;DHT22;9099;47.958;11.366;2023-02-15T00:37:51;0.70;99.90
17948;DHT22;9099;47.958;11.366;2023-02-15T00:40:18;0.60;99.90
17948;DHT22;9099;47.958;11.366;2023-02-15T00:42:45;0.60;99.90
17948;DHT22;9099;47.958;11.366;2023-02-15T00:45:12;0.60;99.90
17948;DHT22;9099;47.958;11.366;2023-02-15T00:47:40;0.60;99.90
17948;DHT22;9099;47.958;11.366;2023-02-15T00:50:07;0.70;99.90
17948;DHT22;9099;47.958;11.366;2023-02-15T00:52:34;0.70;99.90
17948;DHT22;9099;47.958;11.366;2023-02-15T00:55:01;0.70;99.90
17948;DHT22;9099;47.958;11.366;2023-02-15T00:57:27;0.70;99.90
17948;DHT22;9099;47.958;11.366;2023-02-15T00:59:54;0.70;99.90
17948;DHT22;9099;47.958;11.366;2023-02-15T01:02:21;0.70;99.90
17948;DHT22;9099;47.958;11.366;2023-02-15T01:04:49;0.70;99.90
17948;DHT22;9099;47.958;11.366;2023-02-15T01:07:16;0.60;99.90
17948;DHT22;9099;47.958;11.366;2023-02-15T01:09:43;0.50;99.90
17948;DHT22;9099;47.958;11.366;2023-02-15T01:12:10;0.50;99.90
17948;DHT22;9099;47.958;11.366;2023-02-15T01:14:36;0.50;99.90
17948;DHT22;9099;47.958;11.366;2023-02-15T01:17:03;0.40;99.90
17948;DHT22;9099;47.958;11.366;2023-02-15T01:19:30;0.40;99.90
17948;DHT22;9099;47.958;11.366;2023-02-15T01:21:58;0.40;99.90
17948;DHT22;9099;47.958;11.366;2023-02-15T01:24:25;0.50;99.90
17948;DHT22;9099;47.958;11.366;2023-02-15T01:26:52;0.50;99.90
17948;DHT22;9099;47.958;11.366;2023-02-15T01:29:19;0.40;99.90
17948;DHT22;9099;47.958;11.366;2023-02-15T01:31:46;0.40;99.90
17948;DHT22;9099;47.958;11.366;2023-02-15T01:34:12;0.50;99.90
17948;DHT22;9099;47.958;11.366;2023-02-15T01:36:39;0.50;99.90
17948;DHT22;9099;47.958;11.366;2023-02-15T01:39:07;0.50;99.90
17948;DHT22;9099;47.958;11.366;2023-02-15T01:41:36;0.50;99.90
17948;DHT22;9099;47.958;11.366;2023-02-15T01:44:03;0.50;99.90
17948;DHT22;9099;47.958;11.366;2023-02-15T01:46:35;0.40;99.90
17948;DHT22;9099;47.958;11.366;2023-02-15T01:49:08;0.40;99.90
17948;DHT22;9099;47.958;11.366;2023-02-15T01:51:38;0.40;99.90
17948;DHT22;9099;47.958;11.366;2023-02-15T01:54:11;0.40;99.90
17948;DHT22;9099;47.958;11.366;2023-02-15T01:56:42;0.30;99.90
17948;DHT22;9099;47.958;11.366;2023-02-15T01:59:11;0.40;99.90
17948;DHT22;9099;47.958;11.366;2023-02-15T02:01:40;0.40;99.90
17948;DHT22;9099;47.958;11.366;2023-02-15T02:04:10;0.40;99.90
17948;DHT22;9099;47.958;11.366;2023-02-15T02:06:39;0.40;99.90
17948;DHT22;9099;47.958;11.366;2023-02-15T02:09:06;0.40;99.90
17948;DHT22;9099;47.958;11.366;2023-02-15T02:11:35;0.30;99.90
17948;DHT22;9099;47.958;11.366;2023-02-15T02:14:02;0.30;99.90
17948;DHT22;9099;47.958;11.366;2023-02-15T02:16:36;0.30;99.90
17948;DHT22;9099;47.958;11.366;2023-02-15T02:19:33;0.30;99.90
17948;DHT22;9099;47.958;11.366;2023-02-15T02:25:28;0.30;99.90
17948;DHT22;9099;47.958;11.366;2023-02-15T02:28:13;0.20;99.90
17948;DHT22;9099;47.958;11.366;2023-02-15T02:30:57;0.20;99.90
17948;DHT22;9099;47.958;11.366;2023-02-15T02:33:41;0.00;99.90
17948;DHT22;9099;47.958;11.366;2023-02-15T02:36:17;0.00;99.90
17948;DHT22;9099;47.958;11.366;2023-02-15T02:39:00;-0.10;99.90
17948;DHT22;9099;47.958;11.366;2023-02-15T02:41:35;-0.10;99.90
17948;DHT22;9099;47.958;11.366;2023-02-15T02:44:10;-0.20;99.90
17948;DHT22;9099;47.958;11.366;2023-02-15T02:46:48;-0.20;99.90
17948;DHT22;9099;47.958;11.366;2023-02-15T02:49:16;-0.30;99.90
17948;DHT22;9099;47.958;11.366;2023-02-15T02:51:43;-0.40;99.90
17948;DHT22;9099;47.958;11.366;2023-02-15T02:54:10;-0.50;99.90
17948;DHT22;9099;47.958;11.366;2023-02-15T02:56:39;-0.50;99.90
17948;DHT22;9099;47.958;11.366;2023-02-15T02:59:11;-0.40;99.90
17948;DHT22;9099;47.958;11.366;2023-02-15T03:01:42;-0.50;99.90
17948;DHT22;9099;47.958;11.366;2023-02-15T03:04:13;-0.50;99.90
17948;DHT22;9099;47.958;11.366;2023-02-15T03:06:47;-0.50;99.90
17948;DHT22;9099;47.958;11.366;2023-02-15T03:09:21;-0.60;99.90
17948;DHT22;9099;47.958;11.366;2023-02-15T03:11:49;-0.70;99.90
17948;DHT22;9099;47.958;11.366;2023-02-15T03:14:17;-0.70;99.90
17948;DHT22;9099;47.958;11.366;2023-02-15T03:16:47;-0.70;99.90
17948;DHT22;9099;47.958;11.366;2023-02-15T03:19:18;-0.60;99.90
17948;DHT22;9099;47.958;11.366;2023-02-15T03:21:50;-0.70;99.90
17948;DHT22;9099;47.958;11.366;2023-02-15T03:24:32;-0.60;99.90
17948;DHT22;9099;47.958;11.366;2023-02-15T03:27:02;-0.70;99.90
17948;DHT22;9099;47.958;11.366;2023-02-15T03:29:31;-0.60;99.90
17948;DHT22;9099;47.958;11.366;2023-02-15T03:32:02;-0.60;99.90
17948;DHT22;9099;47.958;11.366;2023-02-15T03:34:30;-0.60;99.90
17948;DHT22;9099;47.958;11.366;2023-02-15T03:37:03;-0.60;99.90
17948;DHT22;9099;47.958;11.366;2023-02-15T03:39:34;-0.60;99.90
17948;DHT22;9099;47.958;11.366;2023-02-15T03:42:08;-0.70;99.90
17948;DHT22;9099;47.958;11.366;2023-02-15T03:44:43;-0.70;99.90
17948;DHT22;9099;47.958;11.366;2023-02-15T03:47:15;-0.80;99.90
17948;DHT22;9099;47.958;11.366;2023-02-15T03:49:44;-0.80;99.90
17948;DHT22;9099;47.958;11.366;2023-02-15T03:52:16;-0.90;99.90
17948;DHT22;9099;47.958;11.366;2023-02-15T03:54:44;-0.90;99.90
17948;DHT22;9099;47.958;11.366;2023-02-15T03:57:16;-1.00;99.90
17948;DHT22;9099;47.958;11.366;2023-02-15T04:00:03;-1.00;99.90
17948;DHT22;9099;47.958;11.366;2023-02-15T04:03:04;-1.10;99.90
17948;DHT22;9099;47.958;11.366;2023-02-15T04:05:33;-1.10;99.90
17948;DHT22;9099;47.958;11.366;2023-02-15T04:08:02;-1.10;99.90
17948;DHT22;9099;47.958;11.366;2023-02-15T04:10:29;-1.10;99.90
17948;DHT22;9099;47.958;11.366;2023-02-15T04:13:13;-1.00;99.90
17948;DHT22;9099;47.958;11.366;2023-02-15T04:15:40;-1.00;99.90
17948;DHT22;9099;47.958;11.366;2023-02-15T04:18:24;-1.00;99.90
17948;DHT22;9099;47.958;11.366;2023-02-15T04:21:08;-1.00;99.90
17948;DHT22;9099;47.958;11.366;2023-02-15T04:23:54;-1.10;99.90
17948;DHT22;9099;47.958;11.366;2023-02-15T04:26:38;-1.10;99.90
17948;DHT22;9099;47.958;11.366;2023-02-15T04:29:05;-1.30;99.90
17948;DHT22;9099;47.958;11.366;2023-02-15T04:31:32;-1.30;99.90
17948;DHT22;9099;47.958;11.366;2023-02-15T04:33:59;-1.40;99.90
17948;DHT22;9099;47.958;11.366;2023-02-15T04:36:25;-1.50;99.90
17948;DHT22;9099;47.958;11.366;2023-02-15T04:38:54;-1.50;99.90
17948;DHT22;9099;47.958;11.366;2023-02-15T04:41:20;-1.50;99.90
17948;DHT22;9099;47.958;11.366;2023-02-15T04:43:47;-1.50;99.90
17948;DHT22;9099;47.958;11.366;2023-02-15T04:46:14;-1.50;99.90
17948;DHT22;9099;47.958;11.366;2023-02-15T04:48:41;-1.50;99.90
17948;DHT22;9099;47.958;11.366;2023-02-15T04:51:09;-1.40;99.90
17948;DHT22;9099;47.958;11.366;2023-02-15T04:53:35;-1.40;99.90
17948;DHT22;9099;47.958;11.366;2023-02-15T04:56:04;-1.40;99.90
17948;DHT22;9099;47.958;11.366;2023-02-15T04:58:31;-1.40;99.90
17948;DHT22;9099;47.958;11.366;2023-02-15T05:00:58;-1.40;99.90
17948;DHT22;9099;47.958;11.366;2023-02-15T05:03:25;-1.40;99.90
17948;DHT22;9099;47.958;11.366;2023-02-15T05:05:52;-1.30;99.90
17948;DHT22;9099;47.958;11.366;2023-02-15T05:08:18;-1.20;99.90
17948;DHT22;9099;47.958;11.366;2023-02-15T05:10:47;-1.20;99.90
17948;DHT22;9099;47.958;11.366;2023-02-15T05:13:16;-1.30;99.90
17948;DHT22;9099;47.958;11.366;2023-02-15T05:15:47;-1.30;99.90
17948;DHT22;9099;47.958;11.366;2023-02-15T05:18:13;-1.20;99.90
17948;DHT22;9099;47.958;11.366;2023-02-15T05:20:40;-1.10;99.90
17948;DHT22;9099;47.958;11.366;2023-02-15T05:23:07;-1.10;99.90
17948;DHT22;9099;47.958;11.366;2023-02-15T05:25:34;-1.10;99.90
17948;DHT22;9099;47.958;11.366;2023-02-15T05:28:20;-1.10;99.90
17948;DHT22;9099;47.958;11.366;2023-02-15T05:30:47;-1.10;99.90
17948;DHT22;9099;47.958;11.366;2023-02-15T05:33:14;-1.10;99.90
17948;DHT22;9099;47.958;11.366;2023-02-15T05:35:41;-1.20;99.90
17948;DHT22;9099;47.958;11.366;2023-02-15T05:38:08;-1.30;99.90
17948;DHT22;9099;47.958;11.366;2023-02-15T05:40:35;-1.30;99.90
17948;DHT22;9099;47.958;11.366;2023-02-15T05:43:02;-1.30;99.90
17948;DHT22;9099;47.958;11.366;2023-02-15T05:45:30;-1.20;99.90
17948;DHT22;9099;47.958;11.366;2023-02-15T05:47:57;-1.20;99.90
17948;DHT22;9099;47.958;11.366;2023-02-15T05:50:24;-1.10;99.90
17948;DHT22;9099;47.958;11.366;2023-02-15T05:52:51;-1.00;99.90
17948;DHT22;9099;47.958;11.366;2023-02-15T05:55:18;-1.00;99.90
17948;DHT22;9099;47.958;11.366;2023-02-15T05:57:45;-1.00;99.90
17948;DHT22;9099;47.958;11.366;2023-02-15T06:00:13;-0.90;99.90
17948;DHT22;9099;47.958;11.366;2023-02-15T06:02:42;-0.90;99.90
17948;DHT22;9099;47.958;11.366;2023-02-15T06:05:09;-0.90;99.90
17948;DHT22;9099;47.958;11.366;2023-02-15T06:07:36;-1.00;99.90
17948;DHT22;9099;47.958;11.366;2023-02-15T06:10:04;-1.10;99.90
17948;DHT22;9099;47.958;11.366;2023-02-15T06:12:30;-1.10;99.90
17948;DHT22;9099;47.958;11.366;2023-02-15T06:14:57;-1.00;99.90
17948;DHT22;9099;47.958;11.366;2023-02-15T06:17:24;-0.90;99.90
17948;DHT22;9099;47.958;11.366;2023-02-15T06:19:52;-0.90;99.90
17948;DHT22;9099;47.958;11.366;2023-02-15T06:22:19;-0.90;99.90
17948;DHT22;9099;47.958;11.366;2023-02-15T06:24:47;-0.90;99.90
17948;DHT22;9099;47.958;11.366;2023-02-15T06:27:14;-0.90;99.90
17948;DHT22;9099;47.958;11.366;2023-02-15T06:29:40;-0.90;99.90
17948;DHT22;9099;47.958;11.366;2023-02-15T06:32:07;-0.90;99.90
17948;DHT22;9099;47.958;11.366;2023-02-15T06:34:34;-0.80;99.90
17948;DHT22;9099;47.958;11.366;2023-02-15T06:37:02;-0.90;99.90
17948;DHT22;9099;47.958;11.366;2023-02-15T06:39:29;-0.80;99.90
17948;DHT22;9099;47.958;11.366;2023-02-15T06:41:57;-0.90;99.90
17948;DHT22;9099;47.958;11.366;2023-02-15T06:44:24;-0.90;99.90
17948;DHT22;9099;47.958;11.366;2023-02-15T06:46:51;-0.80;99.90
17948;DHT22;9099;47.958;11.366;2023-02-15T06:49:18;-0.70;99.90
17948;DHT22;9099;47.958;11.366;2023-02-15T06:51:45;-0.60;99.90
17948;DHT22;9099;47.958;11.366;2023-02-15T06:54:13;-0.60;99.90
17948;DHT22;9099;47.958;11.366;2023-02-15T06:56:40;-0.50;99.90
17948;DHT22;9099;47.958;11.366;2023-02-15T06:59:07;-0.50;99.90
17948;DHT22;9099;47.958;11.366;2023-02-15T07:01:34;-0.50;99.90
17948;DHT22;9099;47.958;11.366;2023-02-15T07:04:02;-0.40;99.90
17948;DHT22;9099;47.958;11.366;2023-02-15T07:06:31;-0.40;99.90
17948;DHT22;9099;47.958;11.366;2023-02-15T07:08:58;-0.30;99.90
17948;DHT22;9099;47.958;11.366;2023-02-15T07:11:26;-0.20;99.90
17948;DHT22;9099;47.958;11.366;2023-02-15T07:14:10;-0.30;99.90
17948;DHT22;9099;47.958;11.366;2023-02-15T07:16:38;-0.40;99.90
17948;DHT22;9099;47.958;11.366;2023-02-15T07:19:04;-0.40;99.90
17948;DHT22;9099;47.958;11.366;2023-02-15T07:21:32;-0.30;99.90
17948;DHT22;9099;47.958;11.366;2023-02-15T07:23:59;-0.30;99.90
17948;DHT22;9099;47.958;11.366;2023-02-15T07:26:27;-0.10;99.90
17948;DHT22;9099;47.958;11.366;2023-02-15T07:28:54;0.10;99.90
17948;DHT22;9099;47.958;11.366;2023-02-15T07:31:21;0.20;99.90
17948;DHT22;9099;47.958;11.366;2023-02-15T07:33:48;0.30;99.90
17948;DHT22;9099;47.958;11.366;2023-02-15T07:36:15;0.40;99.90
17948;DHT22;9099;47.958;11.366;2023-02-15T07:38:42;0.60;99.90
17948;DHT22;9099;47.958;11.366;2023-02-15T07:41:12;0.70;99.90
17948;DHT22;9099;47.958;11.366;2023-02-15T07:43:41;0.90;99.90
17948;DHT22;9099;47.958;11.366;2023-02-15T07:46:10;1.10;99.90
17948;DHT22;9099;47.958;11.366;2023-02-15T07:48:38;1.30;99.90
17948;DHT22;9099;47.958;11.366;2023-02-15T07:51:08;1.60;99.90
17948;DHT22;9099;47.958;11.366;2023-02-15T07:53:35;1.90;99.90
17948;DHT22;9099;47.958;11.366;2023-02-15T07:56:05;2.30;99.90
17948;DHT22;9099;47.958;11.366;2023-02-15T07:58:32;2.80;99.90
17948;DHT22;9099;47.958;11.366;2023-02-15T08:01:21;3.30;99.90
17948;DHT22;9099;47.958;11.366;2023-02-15T08:03:49;4.10;99.90
17948;DHT22;9099;47.958;11.366;2023-02-15T08:06:16;5.20;99.90
17948;DHT22;9099;47.958;11.366;2023-02-15T08:08:43;6.10;99.90
17948;DHT22;9099;47.958;11.366;2023-02-15T08:11:16;6.80;99.90
17948;DHT22;9099;47.958;11.366;2023-02-15T08:13:55;7.20;99.90
17948;DHT22;9099;47.958;11.366;2023-02-15T08:16:28;7.80;99.90
17948;DHT22;9099;47.958;11.366;2023-02-15T08:18:56;8.60;99.90
17948;DHT22;9099;47.958;11.366;2023-02-15T08:21:24;9.20;99.90
17948;DHT22;9099;47.958;11.366;2023-02-15T08:23:51;10.20;99.90
17948;DHT22;9099;47.958;11.366;2023-02-15T08:26:18;11.20;99.90
17948;DHT22;9099;47.958;11.366;2023-02-15T08:28:45;12.00;99.90
17948;DHT22;9099;47.958;11.366;2023-02-15T08:31:14;12.70;99.90
17948;DHT22;9099;47.958;11.366;2023-02-15T08:33:44;13.10;99.90
17948;DHT22;9099;47.958;11.366;2023-02-15T08:36:15;13.50;99.90
17948;DHT22;9099;47.958;11.366;2023-02-15T08:38:43;13.80;99.90
17948;DHT22;9099;47.958;11.366;2023-02-15T08:41:11;14.10;99.90
17948;DHT22;9099;47.958;11.366;2023-02-15T08:43:39;14.10;99.90
17948;DHT22;9099;47.958;11.366;2023-02-15T08:46:06;14.50;99.90
17948;DHT22;9099;47.958;11.366;2023-02-15T08:48:33;14.70;99.90
17948;DHT22;9099;47.958;11.366;2023-02-15T08:51:06;15.20;99.90
17948;DHT22;9099;47.958;11.366;2023-02-15T08:53:33;16.30;99.90
17948;DHT22;9099;47.958;11.366;2023-02-15T08:56:00;16.60;99.90
17948;DHT22;9099;47.958;11.366;2023-02-15T08:58:28;16.90;99.90
17948;DHT22;9099;47.958;11.366;2023-02-15T09:00:56;16.50;99.90
17948;DHT22;9099;47.958;11.366;2023-02-15T09:03:23;16.20;99.90
17948;DHT22;9099;47.958;11.366;2023-02-15T09:05:50;16.10;99.90
17948;DHT22;9099;47.958;11.366;2023-02-15T09:08:18;16.60;99.90
17948;DHT22;9099;47.958;11.366;2023-02-15T09:10:45;17.10;99.90
17948;DHT22;9099;47.958;11.366;2023-02-15T09:13:12;17.20;99.90
17948;DHT22;9099;47.958;11.366;2023-02-15T09:15:39;18.00;99.90
17948;DHT22;9099;47.958;11.366;2023-02-15T09:20:39;18.50;99.90
17948;DHT22;9099;47.958;11.366;2023-02-15T09:23:06;18.40;99.90
17948;DHT22;9099;47.958;11.366;2023-02-15T09:25:35;18.20;99.90
17948;DHT22;9099;47.958;11.366;2023-02-15T09:28:02;18.70;99.90
17948;DHT22;9099;47.958;11.366;2023-02-15T09:30:29;18.30;99.90
17948;DHT22;9099;47.958;11.366;2023-02-15T09:32:55;18.00;99.90
17948;DHT22;9099;47.958;11.366;2023-02-15T09:35:22;17.90;99.90
17948;DHT22;9099;47.958;11.366;2023-02-15T09:37:49;18.00;99.90
17948;DHT22;9099;47.958;11.366;2023-02-15T09:40:16;18.40;99.90
17948;DHT22;9099;47.958;11.366;2023-02-15T09:46:00;20.40;99.90
17948;DHT22;9099;47.958;11.366;2023-02-15T09:48:39;21.40;97.10
17948;DHT22;9099;47.958;11.366;2023-02-15T09:51:34;21.70;96.40
17948;DHT22;9099;47.958;11.366;2023-02-15T09:54:21;21.90;95.40
17948;DHT22;9099;47.958;11.366;2023-02-15T09:56:54;22.50;95.90
17948;DHT22;9099;47.958;11.366;2023-02-15T09:59:30;22.80;93.80
17948;DHT22;9099;47.958;11.366;2023-02-15T10:02:14;23.00;94.30
17948;DHT22;9099;47.958;11.366;2023-02-15T10:04:54;23.10;93.50
17948;DHT22;9099;47.958;11.366;2023-02-15T10:07:41;23.20;93.60
17948;DHT22;9099;47.958;11.366;2023-02-15T10:10:19;23.40;94.00
17948;DHT22;9099;47.958;11.366;2023-02-15T10:13:00;23.50;92.80
17948;DHT22;9099;47.958;11.366;2023-02-15T10:15:43;23.50;94.20
17948;DHT22;9099;47.958;11.366;2023-02-15T10:18:48;23.40;93.10
17948;DHT22;9099;47.958;11.366;2023-02-15T10:21:23;22.80;93.20
17948;DHT22;9099;47.958;11.366;2023-02-15T10:24:25;22.60;93.20
17948;DHT22;9099;47.958;11.366;2023-02-15T10:26:59;22.40;93.80
17948;DHT22;9099;47.958;11.366;2023-02-15T10:29:34;22.30;96.00
17948;DHT22;9099;47.958;11.366;2023-02-15T10:32:09;21.60;95.40
17948;DHT22;9099;47.958;11.366;2023-02-15T10:34:46;21.20;96.90
17948;DHT22;9099;47.958;11.366;2023-02-15T10:37:32;21.60;95.70
17948;DHT22;9099;47.958;11.366;2023-02-15T10:40:08;22.00;94.60
17948;DHT22;9099;47.958;11.366;2023-02-15T10:42:43;21.70;96.00
17948;DHT22;9099;47.958;11.366;2023-02-15T10:45:23;21.40;94.30
17948;DHT22;9099;47.958;11.366;2023-02-15T10:48:16;21.00;97.00
17948;DHT22;9099;47.958;11.366;2023-02-15T10:50:50;21.60;95.30
17948;DHT22;9099;47.958;11.366;2023-02-15T10:53:37;21.90;96.10
17948;DHT22;9099;47.958;11.366;2023-02-15T10:56:12;22.20;94.60
17948;DHT22;9099;47.958;11.366;2023-02-15T10:58:52;22.30;93.50
17948;DHT22;9099;47.958;11.366;2023-02-15T11:01:27;22.40;93.30
17948;DHT22;9099;47.958;11.366;2023-02-15T11:06:51;22.20;93.40
17948;DHT22;9099;47.958;11.366;2023-02-15T11:09:22;22.30;93.40
17948;DHT22;9099;47.958;11.366;2023-02-15T11:11:53;22.20;94.20
17948;DHT22;9099;47.958;11.366;2023-02-15T11:14:31;22.20;94.60
17948;DHT22;9099;47.958;11.366;2023-02-15T11:17:05;22.30;94.50
17948;DHT22;9099;47.958;11.366;2023-02-15T11:19:37;22.00;94.80
17948;DHT22;9099;47.958;11.366;2023-02-15T11:22:09;21.90;94.50
17948;DHT22;9099;47.958;11.366;2023-02-15T11:24:40;22.00;93.60
17948;DHT22;9099;47.958;11.366;2023-02-15T11:27:19;22.00;93.80
17948;DHT22;9099;47.958;11.366;2023-02-15T11:29:53;22.10;94.20
17948;DHT22;9099;47.958;11.366;2023-02-15T11:32:24;22.20;92.50
17948;DHT22;9099;47.958;11.366;2023-02-15T11:34:54;21.70;93.70
17948;DHT22;9099;47.958;11.366;2023-02-15T11:37:29;21.40;94.00
17948;DHT22;9099;47.958;11.366;2023-02-15T11:40:00;21.40;94.20
17948;DHT22;9099;47.958;11.366;2023-02-15T11:42:30;21.40;93.40
17948;DHT22;9099;47.958;11.366;2023-02-15T11:45:02;21.40;93.60
17948;DHT22;9099;47.958;11.366;2023-02-15T11:47:31;21.50;93.60
17948;DHT22;9099;47.958;11.366;2023-02-15T11:49:58;21.60;93.10
17948;DHT22;9099;47.958;11.366;2023-02-15T11:52:26;21.60;92.00
17948;DHT22;9099;47.958;11.366;2023-02-15T11:54:53;21.60;92.80
17948;DHT22;9099;47.958;11.366;2023-02-15T11:57:23;21.60;93.00
17948;DHT22;9099;47.958;11.366;2023-02-15T11:59:57;21.30;94.00
17948;DHT22;9099;47.958;11.366;2023-02-15T12:02:25;21.10;93.30
17948;DHT22;9099;47.958;11.366;2023-02-15T12:04:57;21.10;93.60
17948;DHT22;9099;47.958;11.366;2023-02-15T12:07:30;21.20;93.50
17948;DHT22;9099;47.958;11.366;2023-02-15T12:10:02;21.10;94.00
17948;DHT22;9099;47.958;11.366;2023-02-15T12:12:33;21.00;94.40
17948;DHT22;9099;47.958;11.366;2023-02-15T12:15:03;20.70;93.30
17948;DHT22;9099;47.958;11.366;2023-02-15T12:17:33;20.60;94.10
17948;DHT22;9099;47.958;11.366;2023-02-15T12:20:03;20.90;92.90
17948;DHT22;9099;47.958;11.366;2023-02-15T12:22:33;20.90;93.40
17948;DHT22;9099;47.958;11.366;2023-02-15T12:25:11;21.00;92.90
17948;DHT22;9099;47.958;11.366;2023-02-15T12:27:46;21.00;92.40
17948;DHT22;9099;47.958;11.366;2023-02-15T12:30:19;20.80;93.30
17948;DHT22;9099;47.958;11.366;2023-02-15T12:32:51;20.80;93.40
17948;DHT22;9099;47.958;11.366;2023-02-15T12:35:25;20.90;92.70
17948;DHT22;9099;47.958;11.366;2023-02-15T12:37:57;21.00;92.40
17948;DHT22;9099;47.958;11.366;2023-02-15T12:40:27;21.10;93.20
17948;DHT22;9099;47.958;11.366;2023-02-15T12:42:54;21.10;92.80
17948;DHT22;9099;47.958;11.366;2023-02-15T12:45:24;21.00;92.90
17948;DHT22;9099;47.958;11.366;2023-02-15T12:48:09;21.30;93.20
17948;DHT22;9099;47.958;11.366;2023-02-15T12:50:42;21.20;91.90
17948;DHT22;9099;47.958;11.366;2023-02-15T12:53:16;21.20;90.80
17948;DHT22;9099;47.958;11.366;2023-02-15T12:55:53;21.30;90.70
17948;DHT22;9099;47.958;11.366;2023-02-15T12:58:22;21.40;90.70
17948;DHT22;9099;47.958;11.366;2023-02-15T13:01:03;21.50;90.90
17948;DHT22;9099;47.958;11.366;2023-02-15T13:03:30;21.50;90.80
17948;DHT22;9099;47.958;11.366;2023-02-15T13:05:57;21.40;90.90
17948;DHT22;9099;47.958;11.366;2023-02-15T13:08:31;21.60;90.70
17948;DHT22;9099;47.958;11.366;2023-02-15T13:11:01;21.80;91.40
17948;DHT22;9099;47.958;11.366;2023-02-15T13:13:30;21.70;90.70
17948;DHT22;9099;47.958;11.366;2023-02-15T13:16:00;21.70;90.20
17948;DHT22;9099;47.958;11.366;2023-02-15T13:18:33;21.60;90.30
17948;DHT22;9099;47.958;11.366;2023-02-15T13:21:09;21.30;90.60
17948;DHT22;9099;47.958;11.366;2023-02-15T13:23:40;21.10;90.50
17948;DHT22;9099;47.958;11.366;2023-02-15T13:26:13;21.20;91.90
17948;DHT22;9099;47.958;11.366;2023-02-15T13:28:44;21.30;90.90
17948;DHT22;9099;47.958;11.366;2023-02-15T13:31:14;21.30;90.00
17948;DHT22;9099;47.958;11.366;2023-02-15T13:33:45;21.10;91.20
17948;DHT22;9099;47.958;11.366;2023-02-15T13:36:17;21.00;91.80
17948;DHT22;9099;47.958;11.366;2023-02-15T13:39:08;21.30;91.30
17948;DHT22;9099;47.958;11.366;2023-02-15T13:41:47;21.50;91.20
17948;DHT22;9099;47.958;11.366;2023-02-15T13:44:24;21.40;89.50
17948;DHT22;9099;47.958;11.366;2023-02-15T13:47:06;21.00;90.90
17948;DHT22;9099;47.958;11.366;2023-02-15T13:49:50;20.90;91.80
17948;DHT22;9099;47.958;11.366;2023-02-15T13:52:21;21.00;91.50
17948;DHT22;9099;47.958;11.366;2023-02-15T13:54:59;21.00;91.30
17948;DHT22;9099;47.958;11.366;2023-02-15T14:00:22;21.20;90.20
17948;DHT22;9099;47.958;11.366;2023-02-15T14:03:05;21.20;90.20
17948;DHT22;9099;47.958;11.366;2023-02-15T14:05:54;21.30;90.50
17948;DHT22;9099;47.958;11.366;2023-02-15T14:08:38;21.30;90.20
17948;DHT22;9099;47.958;11.366;2023-02-15T14:11:15;21.10;90.40
17948;DHT22;9099;47.958;11.366;2023-02-15T14:16:50;21.00;88.40
17948;DHT22;9099;47.958;11.366;2023-02-15T14:19:22;20.80;89.20
17948;DHT22;9099;47.958;11.366;2023-02-15T14:21:56;20.90;90.30
17948;DHT22;9099;47.958;11.366;2023-02-15T14:24:32;21.00;90.50
17948;DHT22;9099;47.958;11.366;2023-02-15T14:27:10;20.90;88.60
17948;DHT22;9099;47.958;11.366;2023-02-15T14:29:47;20.60;89.10
17948;DHT22;9099;47.958;11.366;2023-02-15T14:32:21;20.70;87.10
17948;DHT22;9099;47.958;11.366;2023-02-15T14:34:53;20.50;87.20
17948;DHT22;9099;47.958;11.366;2023-02-15T14:37:30;20.40;87.20
17948;DHT22;9099;47.958;11.366;2023-02-15T14:40:02;20.50;90.40
17948;DHT22;9099;47.958;11.366;2023-02-15T14:42:55;20.50;89.60
17948;DHT22;9099;47.958;11.366;2023-02-15T14:45:28;20.30;89.60
17948;DHT22;9099;47.958;11.366;2023-02-15T14:48:04;20.20;90.50
17948;DHT22;9099;47.958;11.366;2023-02-15T14:50:44;20.00;91.40
17948;DHT22;9099;47.958;11.366;2023-02-15T14:53:32;20.00;91.40
17948;DHT22;9099;47.958;11.366;2023-02-15T14:56:25;19.70;90.60
17948;DHT22;9099;47.958;11.366;2023-02-15T14:59:13;19.60;91.30
17948;DHT22;9099;47.958;11.366;2023-02-15T15:01:41;19.50;91.10
17948;DHT22;9099;47.958;11.366;2023-02-15T15:04:11;19.30;91.10
17948;DHT22;9099;47.958;11.366;2023-02-15T15:06:41;19.40;91.00
17948;DHT22;9099;47.958;11.366;2023-02-15T15:09:18;19.40;91.20
17948;DHT22;9099;47.958;11.366;2023-02-15T15:11:47;19.40;90.90
17948;DHT22;9099;47.958;11.366;2023-02-15T15:14:37;19.30;90.90
17948;DHT22;9099;47.958;11.366;2023-02-15T15:17:06;19.20;90.70
17948;DHT22;9099;47.958;11.366;2023-02-15T15:20:05;18.90;91.00
17948;DHT22;9099;47.958;11.366;2023-02-15T15:22:39;18.50;92.00
17948;DHT22;9099;47.958;11.366;2023-02-15T15:25:12;18.40;92.90
17948;DHT22;9099;47.958;11.366;2023-02-15T15:28:00;18.40;92.50
17948;DHT22;9099;47.958;11.366;2023-02-15T15:31:00;18.30;92.50
17948;DHT22;9099;47.958;11.366;2023-02-15T15:34:03;18.10;92.70
17948;DHT22;9099;47.958;11.366;2023-02-15T15:42:55;16.90;94.00
17948;DHT22;9099;47.958;11.366;2023-02-15T15:45:41;16.50;94.90
17948;DHT22;9099;47.958;11.366;2023-02-15T15:48:31;15.90;96.30
17948;DHT22;9099;47.958;11.366;2023-02-15T15:51:02;15.50;96.60
17948;DHT22;9099;47.958;11.366;2023-02-15T15:53:33;15.20;97.00
17948;DHT22;9099;47.958;11.366;2023-02-15T15:56:05;15.00;97.20
17948;DHT22;9099;47.958;11.366;2023-02-15T15:58:34;14.70;97.70
17948;DHT22;9099;47.958;11.366;2023-02-15T16:01:06;14.50;98.10
17948;DHT22;9099;47.958;11.366;2023-02-15T16:03:35;14.30;98.50
17948;DHT22;9099;47.958;11.366;2023-02-15T16:06:02;14.10;98.70
17948;DHT22;9099;47.958;11.366;2023-02-15T16:08:31;13.90;99.00
17948;DHT22;9099;47.958;11.366;2023-02-15T16:10:58;13.70;99.30
17948;DHT22;9099;47.958;11.366;2023-02-15T16:13:26;13.50;99.40
17948;DHT22;9099;47.958;11.366;2023-02-15T16:15:55;13.40;99.60
17948;DHT22;9099;47.958;11.366;2023-02-15T16:18:26;13.20;99.90
17948;DHT22;9099;47.958;11.366;2023-02-15T16:20:55;13.00;99.90
17948;DHT22;9099;47.958;11.366;2023-02-15T16:23:52;12.80;99.90
17948;DHT22;9099;47.958;11.366;2023-02-15T16:26:36;12.70;99.90
17948;DHT22;9099;47.958;11.366;2023-02-15T16:29:14;12.50;99.90